Time;durP1;ratioP1;P1;durP2;ratioP2;P2;SDS_P1;SDS_P2;PMS_P1;PMS_P2;Temp;Humidity;BMP_temperature;BMP_pressure;BME280_temperature;BME280_humidity;BME280_pressure;Samples;Min_cycle;Max_cycle;Signal;HPM_P1;HPM_P2
2022/05/24 00:00:57;;;;;;;7.12;3.37;;;;;;;14.73;51.56;99357.52;2020700;88;34214;-66
2022/05/24 00:03:59;;;;;;;4.12;3.12;;;;;;;14.70;51.30;99349.20;2049024;86;29233;-66
2022/05/24 00:07:01;;;;;;;5.10;3.60;;;;;;;14.72;51.38;99347.25;2021217;88;27670;-66
2022/05/24 00:10:06;;;;;;;6.40;3.47;;;;;;;14.73;51.48;99345.39;2020767;87;28120;-66
2022/05/24 00:13:08;;;;;;;7.72;3.47;;;;;;;14.73;51.44;99342.19;2021052;87;31024;-66
2022/05/24 00:16:10;;;;;;;4.28;2.72;;;;;;;14.75;51.55;99346.13;2048892;86;34209;-65
2022/05/24 00:19:12;;;;;;;6.08;3.42;;;;;;;14.76;51.48;99339.75;2048937;83;30385;-66
2022/05/24 00:22:13;;;;;;;5.83;2.83;;;;;;;14.76;51.52;99337.06;2049436;86;27600;-65
2022/05/24 00:25:15;;;;;;;6.17;2.87;;;;;;;14.77;51.52;99329.34;2049106;86;29201;-65
2022/05/24 00:28:17;;;;;;;4.30;3.22;;;;;;;14.79;51.54;99323.80;2020894;88;32317;-65
2022/05/24 00:31:19;;;;;;;8.45;3.20;;;;;;;14.80;51.49;99326.39;2021106;88;34325;-65
2022/05/24 00:34:20;;;;;;;5.53;3.47;;;;;;;14.80;51.63;99314.73;2020932;88;29319;-65
2022/05/24 00:37:24;;;;;;;4.65;2.95;;;;;;;14.80;51.54;99314.73;2049229;86;27609;-64
2022/05/24 00:40:47;;;;;;;4.90;3.25;;;;;;;14.78;51.51;99313.52;2021103;88;29520;-64
2022/05/24 00:43:53;;;;;;;8.28;3.20;;;;;;;14.79;51.54;99307.63;2048911;86;31827;-64
2022/05/24 00:47:00;;;;;;;4.45;3.00;;;;;;;14.79;51.86;99307.63;2048885;86;34276;-65
2022/05/24 00:50:15;;;;;;;7.40;3.15;;;;;;;14.76;51.65;99310.57;2048828;86;29382;-65
2022/05/24 00:53:25;;;;;;;11.63;3.30;;;;;;;14.73;51.94;99301.75;2049131;85;27644;-65
2022/05/24 00:56:46;;;;;;;7.62;3.52;;;;;;;14.67;52.13;99287.42;2020949;88;29062;-65
2022/05/24 01:00:05;;;;;;;5.00;3.27;;;;;;;14.63;52.05;99274.33;2048778;86;32265;-65
2022/05/24 01:03:07;;;;;;;6.95;3.58;;;;;;;14.60;51.91;99264.64;2048985;86;32676;-64
2022/05/24 01:06:09;;;;;;;6.03;3.15;;;;;;;14.58;52.17;99261.22;2048903;86;30526;-64
2022/05/24 01:09:22;;;;;;;4.80;3.60;;;;;;;14.56;52.21;99265.40;2049279;86;28140;-64
2022/05/24 01:12:37;;;;;;;6.87;3.47;;;;;;;14.55;52.36;99256.11;2048892;86;27672;-65
2022/05/24 01:15:39;;;;;;;7.05;3.37;;;;;;;14.49;52.56;99254.75;2049234;86;32217;-64
2022/05/24 01:18:41;;;;;;;8.68;3.30;;;;;;;14.46;52.45;99240.69;2048803;84;34508;-65
2022/05/24 01:21:44;;;;;;;4.00;3.52;;;;;;;14.44;52.82;99234.93;2048807;86;30629;-65
2022/05/24 01:25:09;;;;;;;6.37;3.83;;;;;;;14.42;52.54;99238.74;2049084;86;27814;-64
2022/05/24 01:28:28;;;;;;;6.62;4.10;;;;;;;14.41;52.84;99233.83;2049244;86;29884;-65
2022/05/24 01:38:15;;;;;;;10.23;3.35;;;;;;;14.35;52.85;99210.11;2048931;86;29764;-64
2022/05/24 01:41:28;;;;;;;4.67;3.50;;;;;;;14.32;53.01;99207.66;2049163;86;27520;-65
2022/05/24 01:44:36;;;;;;;5.55;3.58;;;;;;;14.29;53.29;99183.67;2020746;87;30051;-65
2022/05/24 01:47:40;;;;;;;6.72;4.00;;;;;;;14.27;53.32;99170.34;2049054;86;32009;-65
2022/05/24 01:50:43;;;;;;;6.53;4.07;;;;;;;14.25;53.70;99164.69;2049389;86;32974;-65
2022/05/24 01:53:48;;;;;;;7.55;4.20;;;;;;;14.22;53.54;99167.67;2049058;86;30118;-65
2022/05/24 01:56:54;;;;;;;;;;;;;;;14.21;53.64;99184.81;2051683;86;27661;-65
2022/05/24 01:59:56;;;;;;;6.50;4.17;;;;;;;14.21;53.80;99223.36;2049245;86;28708;-65
2022/05/24 02:02:58;;;;;;;5.37;3.75;;;;;;;14.19;53.64;99216.40;2048670;86;32226;-65
2022/05/24 02:06:01;;;;;;;9.85;4.12;;;;;;;14.19;54.09;99220.45;2048735;86;34325;-64
2022/05/24 02:09:06;;;;;;;6.60;3.80;;;;;;;14.18;54.01;99218.73;2030052;86;30389;-65
2022/05/24 02:12:17;;;;;;;6.05;3.55;;;;;;;14.19;54.18;99218.59;2049417;86;27681;-65
2022/05/24 02:15:24;;;;;;;6.33;3.60;;;;;;;14.20;54.09;99216.27;2049077;86;28660;-64
2022/05/24 02:18:27;;;;;;;7.67;4.03;;;;;;;14.19;54.34;99209.67;2048592;85;31647;-64
2022/05/24 02:21:30;;;;;;;7.25;3.98;;;;;;;14.19;54.46;99201.59;2052774;85;32407;-64
2022/05/24 02:24:32;;;;;;;5.70;4.40;;;;;;;14.19;54.43;99205.63;2095032;84;29517;-64
2022/05/24 02:27:43;;;;;;;3.98;3.55;;;;;;;14.19;54.36;99197.04;2095018;85;27724;-65
2022/05/24 02:30:50;;;;;;;5.15;4.00;;;;;;;14.19;54.57;99202.42;2094735;83;29994;-65
2022/05/24 02:33:52;;;;;;;7.10;4.17;;;;;;;14.19;54.40;99194.85;2094997;83;31179;-65
2022/05/24 02:36:54;;;;;;;7.97;4.10;;;;;;;14.19;54.89;99209.67;2095127;85;33325;-65
2022/05/24 02:43:17;;;;;;;7.05;4.30;;;;;;;14.19;54.70;99213.20;2057258;86;27667;-65
2022/05/24 02:46:20;;;;;;;9.23;4.80;;;;;;;14.17;54.59;99215.16;2095047;84;28763;-65
2022/05/24 02:49:22;;;;;;;4.15;3.75;;;;;;;14.18;54.89;99211.48;2095303;85;31968;-65
2022/05/24 02:52:24;;;;;;;7.65;4.50;;;;;;;14.19;54.83;99211.02;2094968;85;33921;-65
2022/05/24 02:55:26;;;;;;;6.60;4.40;;;;;;;14.21;54.86;99206.36;2095359;85;29453;-65
2022/05/24 02:58:32;;;;;;;8.25;4.45;;;;;;;14.20;54.85;99208.18;2057259;86;27748;-65
2022/05/24 03:01:33;;;;;;;;;;;;;;;14.19;55.11;99209.16;2097839;84;29495;-66
2022/05/24 03:04:35;;;;;;;8.60;4.45;;;;;;;14.19;55.09;99204.28;2094881;85;32277;-66
2022/05/24 03:11:01;;;;;;;6.70;4.10;;;;;;;14.13;55.28;99202.45;2095141;85;30624;-66
2022/05/24 03:14:15;;;;;;;8.73;4.17;;;;;;;14.12;55.15;99190.47;2095283;85;28313;-67
2022/05/24 03:17:17;;;;;;;9.35;5.30;;;;;;;14.12;55.32;99198.04;2057212;86;28722;-68
2022/05/24 03:20:20;;;;;;;10.00;4.72;;;;;;;14.13;55.37;99197.56;2095112;85;32359;-67
2022/05/24 03:23:22;;;;;;;8.35;4.72;;;;;;;14.11;55.41;99203.06;2057192;86;33801;-63
2022/05/24 03:26:24;;;;;;;10.58;4.25;;;;;;;14.11;55.67;99198.18;2095368;84;30125;-62
2022/05/24 03:29:26;;;;;;;7.95;4.87;;;;;;;14.08;55.98;99191.19;2095160;85;27631;-64
2022/05/24 03:32:28;;;;;;;8.48;4.70;;;;;;;14.09;56.15;99190.20;2095196;85;29872;-63
2022/05/24 03:35:31;;;;;;;6.50;4.47;;;;;;;14.12;55.84;99192.66;2094956;85;32400;-63
2022/05/24 03:38:34;;;;;;;10.20;5.42;;;;;;;14.18;55.79;99186.41;2056911;86;34205;-62
2022/05/24 03:41:39;;;;;;;9.03;5.03;;;;;;;14.24;55.93;99171.94;2095245;85;29365;-62
2022/05/24 03:44:41;;;;;;;7.97;5.10;;;;;;;14.28;56.35;99163.97;2057613;85;27683;-62
2022/05/24 03:47:44;;;;;;;7.97;5.10;;;;;;;14.33;56.60;99147.41;2056868;86;29989;-62
2022/05/24 03:50:45;;;;;;;9.78;5.55;;;;;;;14.36;56.24;99155.72;2095394;84;31043;-62
2022/05/24 03:53:48;;;;;;;11.35;5.25;;;;;;;14.42;56.28;99164.13;2094911;85;34215;-63
2022/05/24 04:00:13;;;;;;;10.20;4.78;;;;;;;14.57;56.22;99176.82;2095641;85;27758;-63
2022/05/24 04:03:15;;;;;;;11.10;5.83;;;;;;;14.65;56.13;99191.47;2095247;85;28652;-62
2022/05/24 04:06:17;;;;;;;7.35;5.50;;;;;;;14.69;56.24;99198.35;2095323;85;31158;-62
2022/05/24 04:09:20;;;;;;;9.70;6.05;;;;;;;14.72;56.06;99189.53;2094998;84;33435;-62
2022/05/24 04:12:22;;;;;;;10.35;5.58;;;;;;;14.74;56.15;99184.84;2094880;85;29413;-62
2022/05/24 04:15:24;;;;;;;11.93;5.55;;;;;;;14.78;56.07;99185.94;2095146;85;27656;-62
2022/05/24 04:18:27;;;;;;;7.83;5.40;;;;;;;14.82;56.01;99185.53;2056910;86;29951;-62
2022/05/24 04:21:29;;;;;;;8.55;5.87;;;;;;;14.88;55.90;99189.57;2095751;84;31028;-63
2022/05/24 04:24:31;;;;;;;10.28;5.58;;;;;;;14.93;55.93;99190.01;2069774;85;34287;-61
2022/05/24 04:27:36;;;;;;;8.88;5.83;;;;;;;15.00;55.82;99192.55;2047735;85;29745;-62
2022/05/24 04:30:38;;;;;;;9.38;5.65;;;;;;;15.08;55.80;99195.06;2096715;84;27705;-62
2022/05/24 04:33:40;;;;;;;13.88;6.08;;;;;;;15.15;55.72;99189.52;2096394;84;29631;-63
2022/05/24 04:36:42;;;;;;;9.40;5.72;;;;;;;15.18;55.55;99198.70;2069831;85;31427;-62
2022/05/24 04:39:44;;;;;;;21.35;6.80;;;;;;;15.24;55.53;99195.45;2069719;86;34195;-61
2022/05/24 04:42:46;;;;;;;14.98;6.12;;;;;;;15.26;55.41;99196.17;2069677;85;30526;-63
2022/05/24 04:45:48;;;;;;;11.20;6.17;;;;;;;15.29;55.35;99189.67;2047591;87;27703;-62
2022/05/24 04:48:50;;;;;;;7.62;5.72;;;;;;;15.30;55.29;99186.83;2069718;85;29502;-62
2022/05/24 04:51:55;;;;;;;12.82;5.70;;;;;;;15.31;55.28;99189.88;2047342;87;31489;-62
2022/05/24 04:54:57;;;;;;;12.00;6.03;;;;;;;15.33;55.33;99186.56;2069691;86;34308;-62
2022/05/24 04:57:59;;;;;;;10.68;6.30;;;;;;;15.35;55.19;99182.37;2047499;87;29717;-62
2022/05/24 05:01:01;;;;;;;10.20;6.40;;;;;;;15.42;55.15;99179.50;2096317;84;27855;-63
2022/05/24 05:04:04;;;;;;;13.50;5.97;;;;;;;15.51;55.17;99185.94;2096033;84;29933;-62
2022/05/24 05:07:06;;;;;;;13.58;6.10;;;;;;;15.62;54.99;99189.03;2069700;85;32105;-62
2022/05/24 05:10:11;;;;;;;11.80;6.17;;;;;;;15.73;54.88;99185.35;2047644;86;33353;-63
2022/05/24 05:13:12;;;;;;;11.67;6.10;;;;;;;15.85;54.79;99188.36;2070270;86;29337;-62
2022/05/24 05:16:14;;;;;;;9.15;5.95;;;;;;;16.00;54.66;99189.31;2047680;87;28246;-61
2022/05/24 05:19:17;;;;;;;10.05;6.00;;;;;;;16.11;54.56;99182.44;2096105;84;29888;-61
2022/05/24 05:22:18;;;;;;;12.47;6.03;;;;;;;16.21;54.35;99191.43;2094847;84;31105;-63
2022/05/24 05:25:21;;;;;;;11.97;5.50;;;;;;;16.31;54.21;99191.92;2056923;86;33415;-62
2022/05/24 05:28:23;;;;;;;13.05;6.15;;;;;;;16.35;54.04;99183.90;2094928;84;30553;-62
2022/05/24 05:31:26;;;;;;;11.38;5.97;;;;;;;16.53;53.95;99190.80;2095320;85;27607;-62
2022/05/24 05:34:28;;;;;;;10.68;6.65;;;;;;;16.68;53.85;99199.34;2095222;85;28633;-61
2022/05/24 05:37:32;;;;;;;9.60;6.15;;;;;;;16.84;53.78;99186.09;2094895;84;32322;-63
2022/05/24 05:40:34;;;;;;;14.95;6.15;;;;;;;17.49;53.42;99191.80;2057108;86;32374;-63
2022/05/24 05:43:36;;;;;;;10.50;6.65;;;;;;;17.49;53.42;99191.80;2094859;84;29473;-61
2022/05/24 05:46:38;;;;;;;11.05;5.85;;;;;;;17.84;52.34;99195.64;2095045;85;27687;-61
2022/05/24 05:49:41;;;;;;;12.18;6.65;;;;;;;18.21;51.99;99186.58;2094920;84;29516;-61
2022/05/24 05:52:42;;;;;;;9.05;6.35;;;;;;;18.41;51.73;99195.45;2095203;84;31162;-62
2022/05/24 05:55:44;;;;;;;12.53;5.70;;;;;;;18.68;51.28;99187.74;2056940;86;33806;-62
2022/05/24 05:58:50;;;;;;;13.03;5.55;;;;;;;18.84;50.82;99191.59;2094928;84;30650;-61
2022/05/24 06:01:58;;;;;;;11.05;5.72;;;;;;;19.16;50.66;99192.88;2095274;84;27631;-62
2022/05/24 06:05:00;;;;;;;11.70;6.40;;;;;;;20.31;50.04;99185.75;2095299;85;28607;-62
2022/05/24 06:08:03;;;;;;;11.85;5.30;;;;;;;21.25;48.93;99182.75;2094882;84;31129;-62
2022/05/24 06:11:05;;;;;;;9.33;6.22;;;;;;;21.52;47.78;99192.89;2095119;85;32956;-63
2022/05/24 06:14:09;;;;;;;10.00;6.45;;;;;;;21.53;47.74;99193.72;2095040;84;30349;-62
2022/05/24 06:17:11;;;;;;;11.25;6.55;;;;;;;21.47;46.75;99197.16;2056930;86;27693;-63
2022/05/24 06:20:15;;;;;;;10.45;6.00;;;;;;;21.43;46.73;99203.45;2094878;85;30835;-63
2022/05/24 06:23:19;;;;;;;7.97;6.00;;;;;;;21.45;46.84;99196.48;2057470;85;31106;-63
2022/05/24 06:26:21;;;;;;;10.28;5.95;;;;;;;21.45;46.34;99202.77;2057086;86;33687;-61
2022/05/24 06:29:25;;;;;;;16.30;6.40;;;;;;;21.47;46.27;99200.73;2056932;86;31410;-61
2022/05/24 06:32:30;;;;;;;8.38;5.35;;;;;;;22.21;46.71;99194.68;2095682;84;27713;-61
2022/05/24 06:35:40;;;;;;;11.45;5.22;;;;;;;22.69;46.16;99206.33;2057336;86;28704;-63
2022/05/24 06:38:45;;;;;;;9.45;5.45;;;;;;;23.11;45.65;99200.51;2095125;85;28025;-63
2022/05/24 06:41:54;;;;;;;8.73;4.95;;;;;;;23.96;45.51;99204.77;2095120;85;33722;-63
2022/05/24 06:45:04;;;;;;;9.03;4.83;;;;;;;25.14;43.63;99200.13;2095342;85;29426;-63
2022/05/24 06:48:21;;;;;;;5.58;4.33;;;;;;;26.08;43.16;99200.72;2034387;86;27657;-64
2022/05/24 06:51:23;;;;;;;9.18;6.30;;;;;;;26.30;41.19;99202.00;2095392;83;28656;-63
2022/05/24 06:54:26;;;;;;;7.28;4.45;;;;;;;26.72;41.74;99196.39;2094994;84;32260;-61
2022/05/24 06:57:27;;;;;;;6.95;4.37;;;;;;;27.48;40.61;99206.16;2095693;85;33730;-61
2022/05/24 07:03:52;;;;;;;8.13;5.03;;;;;;;29.40;38.29;99209.20;2095257;84;27691;-61
2022/05/24 07:06:57;;;;;;;6.60;4.10;;;;;;;29.61;38.11;99213.98;2095599;85;28100;-61
2022/05/24 07:10:03;;;;;;;8.43;4.42;;;;;;;29.37;37.16;99210.20;2095113;85;31702;-63
2022/05/24 07:13:10;;;;;;;7.40;4.20;;;;;;;28.83;37.01;99204.25;2057838;86;32710;-64
2022/05/24 07:16:12;;;;;;;7.80;4.00;;;;;;;29.58;37.55;99206.70;2095025;84;30188;-66
2022/05/24 07:19:14;;;;;;;6.65;4.08;;;;;;;30.68;35.99;99201.36;2056932;86;27700;-62
2022/05/24 07:22:16;;;;;;;7.50;4.00;;;;;;;31.60;35.09;99202.81;2095810;84;28730;-64
2022/05/24 07:25:19;;;;;;;8.98;3.75;;;;;;;32.27;34.64;99207.59;2096471;84;31199;-63
2022/05/24 07:28:23;;;;;;;8.25;3.47;;;;;;;32.98;33.71;99198.95;2096739;84;32903;-64
2022/05/24 07:31:25;;;;;;;7.10;3.42;;;;;;;33.68;33.40;99211.15;2096721;84;29966;-62
2022/05/24 07:34:27;;;;;;;5.25;3.65;;;;;;;34.38;32.48;99209.27;2069873;85;27686;-63
2022/05/24 07:37:29;;;;;;;7.72;3.75;;;;;;;34.77;31.27;99205.52;2047379;87;30807;-63
2022/05/24 07:47:12;;;;;;;9.00;3.33;;;;;;;35.72;29.24;99209.66;2062006;86;29609;-60
2022/05/24 07:50:14;;;;;;;3.40;3.05;;;;;;;35.76;29.41;99207.16;2073617;84;27710;-61
2022/05/24 07:53:16;;;;;;;7.90;3.90;;;;;;;35.88;28.48;99207.77;2069776;85;29889;-65
2022/05/24 07:56:19;;;;;;;5.22;3.70;;;;;;;35.64;27.82;99201.25;2047434;85;32264;-62
2022/05/24 07:59:21;;;;;;;7.20;3.60;;;;;;;35.41;28.12;99203.30;2070095;86;33775;-62
2022/05/24 08:02:23;;;;;;;6.17;3.22;;;;;;;35.32;27.85;99200.74;2047388;87;29849;-63
2022/05/24 08:05:25;;;;;;;5.58;3.47;;;;;;;34.82;27.90;99201.40;2070087;86;27687;-61
2022/05/24 08:08:28;;;;;;;5.85;3.62;;;;;;;34.47;28.07;99205.50;2047400;87;29949;-65
2022/05/24 08:11:30;;;;;;;5.20;3.27;;;;;;;34.15;28.14;99198.73;2096147;84;31818;-61
2022/05/24 08:14:32;;;;;;;8.00;3.52;;;;;;;34.14;28.43;99208.17;2069686;85;33152;-63
2022/05/24 08:17:34;;;;;;;6.70;3.37;;;;;;;34.06;28.46;99208.08;2015487;87;30299;-66
2022/05/24 08:20:38;;;;;;;6.53;3.72;;;;;;;33.98;28.34;99208.52;2069837;86;27688;-65
2022/05/24 08:23:40;;;;;;;;;;;;;;;33.99;28.21;99205.20;2036492;86;29549;-66
2022/05/24 08:26:42;;;;;;;6.85;3.00;;;;;;;33.50;27.96;99201.18;2041484;87;32012;-63
2022/05/24 08:29:45;;;;;;;7.20;3.70;;;;;;;32.99;28.63;99203.41;2030147;86;33837;-59
2022/05/24 08:32:49;;;;;;;6.58;3.67;;;;;;;33.12;28.92;99204.16;2056895;86;30338;-62
2022/05/24 08:35:52;;;;;;;5.92;4.00;;;;;;;33.09;28.65;99199.97;2095075;84;27684;-61
2022/05/24 08:38:55;;;;;;;7.28;3.75;;;;;;;32.94;29.07;99210.78;2057337;86;28827;-63
2022/05/24 08:42:42;;;;;;;9.98;3.58;;;;;;;32.55;28.95;99212.83;2095276;85;31799;-62
2022/05/24 08:49:16;;;;;;;12.45;4.40;;;;;;;31.84;29.64;99218.02;2095212;85;30122;-62
2022/05/24 08:52:18;;;;;;;;;;;;;;;31.62;29.83;99215.84;2097713;85;27693;-61
2022/05/24 08:55:21;;;;;;;4.40;3.22;;;;;;;31.44;30.40;99220.14;2095191;84;29147;-62
2022/05/24 08:58:34;;;;;;;6.87;3.70;;;;;;;31.37;30.56;99217.47;2094806;85;31146;-61
2022/05/24 09:01:36;;;;;;;8.07;3.70;;;;;;;31.28;30.66;99213.39;2094276;84;32849;-66
2022/05/24 09:04:38;;;;;;;6.80;3.65;;;;;;;31.11;30.83;99214.06;2056874;86;30552;-64
2022/05/24 09:07:51;;;;;;;6.40;2.67;;;;;;;30.98;31.11;99213.73;2095072;85;27929;-65
2022/05/24 09:11:14;;;;;;;6.83;3.02;;;;;;;30.80;31.57;99220.20;2094901;83;28675;-62
2022/05/24 09:15:10;;;;;;;6.12;3.02;;;;;;;30.70;31.82;99212.47;2081939;84;32278;-64
2022/05/24 09:18:21;;;;;;;5.85;3.33;;;;;;;30.70;31.75;99211.09;2040121;87;34167;-63
2022/05/24 09:21:29;;;;;;;4.15;2.90;;;;;;;30.69;32.02;99213.55;2009620;87;29381;-63
2022/05/24 09:24:52;;;;;;;8.05;3.00;;;;;;;30.88;31.90;99208.78;1997573;88;27639;-64
2022/05/24 09:27:55;;;;;;;5.17;2.83;;;;;;;30.89;31.78;99209.64;2035222;87;28700;-65
2022/05/24 09:30:57;;;;;;;5.17;3.05;;;;;;;30.99;31.83;99207.13;2035558;87;31034;-64
2022/05/24 09:34:20;;;;;;;2.80;2.22;;;;;;;31.12;31.94;99207.45;2035113;87;34223;-62
2022/05/24 09:37:26;;;;;;;5.97;3.20;;;;;;;31.53;31.81;99200.69;1997297;89;29312;-62
2022/05/24 09:40:28;;;;;;;6.42;2.80;;;;;;;32.04;31.54;99205.70;2035418;87;27728;-63
2022/05/24 09:43:35;;;;;;;4.78;1.90;;;;;;;32.42;31.58;99209.27;2035022;87;29913;-62
2022/05/24 09:46:39;;;;;;;5.05;2.47;;;;;;;32.79;31.26;99210.77;2035353;87;31038;-65
2022/05/24 09:49:41;;;;;;;7.30;2.92;;;;;;;32.88;30.78;99219.03;2035479;87;36861;-62
2022/05/24 09:53:10;;;;;;;4.67;2.92;;;;;;;32.61;30.33;99213.23;2052109;86;30168;-63
2022/05/24 09:56:30;;;;;;;2.98;2.55;;;;;;;32.27;30.52;99218.12;2055633;86;27647;-65
2022/05/24 09:59:34;;;;;;;6.62;2.75;;;;;;;32.06;30.86;99223.75;1983544;89;28845;-62
2022/05/24 10:02:39;;;;;;;;;;;;;;;31.88;30.90;99226.68;2009334;87;31035;-62
2022/05/24 10:05:40;;;;;;;4.85;2.77;;;;;;;31.65;31.13;99231.97;2007971;87;34331;-61
2022/05/24 10:08:52;;;;;;;3.12;2.30;;;;;;;31.32;31.49;99236.73;2008094;88;29702;-62
2022/05/24 10:12:12;;;;;;;4.37;2.80;;;;;;;30.88;31.58;99236.98;2018739;87;27777;-64
2022/05/24 10:15:46;;;;;;;12.07;3.27;;;;;;;30.56;31.96;99243.59;2024917;87;28496;-63
2022/05/24 10:19:15;;;;;;;3.65;1.95;;;;;;;30.18;32.31;99235.05;2024675;87;31690;-62
2022/05/24 10:22:59;;;;;;;4.12;1.35;;;;;;;30.04;32.80;99242.65;2014549;87;33050;-63
2022/05/24 10:26:24;;;;;;;7.80;2.50;;;;;;;29.98;32.86;99241.66;1997140;88;30646;-64
2022/05/24 10:29:34;;;;;;;4.08;2.08;;;;;;;29.95;33.29;99242.11;2027497;87;28123;-62
2022/05/24 10:38:17;;;;;;;2.25;1.82;;;;;;;30.10;33.74;99244.50;2016996;87;32390;-63
2022/05/24 10:40:37;;;;;;;4.12;1.90;;;;;;;30.37;33.62;99244.16;2030956;86;33093;-61
2022/05/24 10:43:51;;;;;;;2.42;1.80;;;;;;;30.70;33.56;99244.78;2041645;87;30217;-62
2022/05/24 10:47:10;;;;;;;3.20;2.15;;;;;;;30.83;33.05;99248.77;2041659;87;27647;-62
2022/05/24 10:50:29;;;;;;;3.72;2.10;;;;;;;30.84;33.07;99255.98;2041679;85;28689;-62
2022/05/24 10:53:53;;;;;;;3.40;2.25;;;;;;;30.68;32.92;99251.12;2063739;86;31195;-63
2022/05/24 10:57:28;;;;;;;6.20;2.20;;;;;;;30.40;33.02;99253.37;2037501;87;34362;-63
2022/05/24 11:00:35;;;;;;;7.12;2.55;;;;;;;30.15;33.29;99246.01;2041806;87;35485;-63
2022/05/24 11:03:45;;;;;;;4.95;2.50;;;;;;;29.95;33.56;99252.30;2040214;87;28287;-61
2022/05/24 11:06:55;;;;;;;4.10;2.47;;;;;;;29.85;33.68;99250.06;2041107;87;29468;-62
2022/05/24 11:10:27;;;;;;;3.45;2.83;;;;;;;29.90;33.62;99252.13;2041279;87;32285;-62
2022/05/24 11:13:40;;;;;;;4.78;2.10;;;;;;;29.89;34.07;99247.13;2029885;87;34287;-63
2022/05/24 11:16:46;;;;;;;5.80;2.05;;;;;;;30.00;34.00;99249.17;2008772;88;29566;-64
2022/05/24 11:19:51;;;;;;;6.00;2.30;;;;;;;30.17;34.08;99256.84;2058523;86;27746;-64
2022/05/24 11:23:16;;;;;;;5.08;2.15;;;;;;;30.30;34.01;99254.44;2091823;84;29480;-63
2022/05/24 11:26:33;;;;;;;3.30;2.00;;;;;;;30.38;34.03;99253.27;2096492;84;32245;-62
2022/05/24 11:30:01;;;;;;;1.47;0.72;;;;;;;30.59;34.01;99251.98;2096597;84;33023;-64
2022/05/24 11:33:10;;;;;;;3.30;2.17;;;;;;;30.73;33.50;99249.33;2096617;84;29357;-63
2022/05/24 11:36:39;;;;;;;1.70;0.80;;;;;;;30.90;33.28;99248.11;2096251;83;27682;-63
2022/05/24 11:39:43;;;;;;;2.75;1.80;;;;;;;31.12;33.24;99242.55;2096608;84;28756;-63
2022/05/24 11:42:47;;;;;;;4.90;2.15;;;;;;;31.35;33.17;99241.25;2069961;85;31009;-66
2022/05/24 11:45:59;;;;;;;2.55;1.27;;;;;;;31.55;32.89;99238.67;2062019;86;33027;-65
2022/05/24 11:49:06;;;;;;;1.52;1.27;;;;;;;31.74;32.94;99243.56;2062189;86;29333;-65
2022/05/24 11:52:47;;;;;;;4.65;1.57;;;;;;;32.04;32.69;99241.72;2031302;86;27724;-65
2022/05/24 11:56:01;;;;;;;5.70;1.80;;;;;;;32.27;32.21;99243.62;2036507;87;29600;-64
2022/05/24 11:59:07;;;;;;;4.30;1.90;;;;;;;32.31;31.85;99237.03;2040272;87;31086;-62
2022/05/24 12:07:54;;;;;;;3.60;1.50;;;;;;;32.34;31.83;99240.17;2042422;87;33884;-63
2022/05/24 12:09:29;;;;;;;3.15;1.00;;;;;;;32.48;31.36;99240.70;2043596;87;27882;-64
2022/05/24 12:12:39;;;;;;;5.28;1.90;;;;;;;32.52;31.20;99239.66;2013751;87;29093;-62
2022/05/24 12:15:52;;;;;;;4.72;1.65;;;;;;;32.36;30.75;99235.20;2015885;86;31988;-65
2022/05/24 12:19:00;;;;;;;8.95;2.58;;;;;;;32.19;30.94;99237.89;1984719;86;33181;-64
2022/05/24 12:22:15;;;;;;;5.40;2.60;;;;;;;31.96;31.05;99237.40;1981281;89;29331;-61
2022/05/24 12:25:38;;;;;;;4.47;2.22;;;;;;;31.67;31.20;99242.83;2018562;88;27712;-63
2022/05/24 12:28:50;;;;;;;5.05;1.32;;;;;;;31.54;31.45;99234.22;1987869;89;29921;-65
2022/05/24 12:31:52;;;;;;;5.28;1.72;;;;;;;31.31;31.40;99237.82;2003237;88;31966;-64
2022/05/24 12:35:05;;;;;;;5.53;1.70;;;;;;;31.03;31.65;99243.44;2086059;85;34191;-65
2022/05/24 12:38:12;;;;;;;3.35;1.80;;;;;;;30.82;31.90;99238.78;2086267;85;30512;-64
2022/05/24 12:41:31;;;;;;;3.35;1.52;;;;;;;30.55;32.13;99236.94;2086171;85;27680;-67
2022/05/24 12:44:41;;;;;;;3.75;1.70;;;;;;;30.41;32.41;99230.19;2066475;85;28727;-67
2022/05/24 12:47:44;;;;;;;3.72;2.05;;;;;;;30.43;32.81;99225.27;2087438;85;31846;-62
2022/05/24 12:50:48;;;;;;;2.45;1.65;;;;;;;30.50;32.77;99226.55;2066116;85;33173;-66
2022/05/24 12:53:52;;;;;;;4.10;1.98;;;;;;;30.58;32.99;99225.41;2064696;85;27761;-66
2022/05/24 12:57:02;;;;;;;4.95;2.20;;;;;;;30.74;32.75;99227.52;2086412;85;27703;-64
2022/05/24 13:00:20;;;;;;;4.67;1.90;;;;;;;30.83;32.50;99220.25;2086748;85;28670;-65
2022/05/24 13:03:24;;;;;;;2.20;1.55;;;;;;;30.97;32.23;99227.81;2067419;85;32324;-63
2022/05/24 13:06:29;;;;;;;5.90;1.90;;;;;;;31.09;32.36;99220.37;2066525;85;33691;-65
2022/05/24 13:09:34;;;;;;;3.70;2.10;;;;;;;31.18;32.27;99213.45;2088209;85;29324;-65
2022/05/24 13:12:37;;;;;;;2.22;1.62;;;;;;;31.18;32.12;99216.74;2077711;85;27717;-65
2022/05/24 13:15:52;;;;;;;4.40;2.00;;;;;;;31.19;32.13;99222.58;2078163;85;28752;-68
2022/05/24 13:18:55;;;;;;;4.80;2.10;;;;;;;31.14;31.90;99213.63;2078417;85;32087;-63
2022/05/24 13:21:58;;;;;;;2.15;1.60;;;;;;;31.06;31.83;99217.55;2079109;85;32964;-65
2022/05/24 13:25:01;;;;;;;3.52;1.30;;;;;;;31.07;31.88;99218.38;2078479;85;29324;-62
2022/05/24 13:28:05;;;;;;;5.10;2.58;;;;;;;31.09;31.97;99218.98;2078456;85;28196;-64
2022/05/24 13:34:44;;;;;;;3.42;2.50;;;;;;;31.26;31.79;99229.38;2079379;85;31563;-65
2022/05/24 13:37:55;;;;;;;2.20;2.00;;;;;;;31.18;31.74;99236.97;2079672;85;33086;-62
2022/05/24 13:40:58;;;;;;;7.55;1.92;;;;;;;31.12;31.70;99236.50;2080035;85;29679;-63
2022/05/24 13:44:24;;;;;;;4.65;2.15;;;;;;;31.07;31.71;99247.42;2079037;85;27747;-64
2022/05/24 13:47:29;;;;;;;8.20;2.37;;;;;;;31.09;31.70;99238.35;2077861;85;29915;-63
2022/05/24 13:50:40;;;;;;;3.55;2.10;;;;;;;30.97;31.70;99245.79;2077796;85;31020;-63
2022/05/24 13:53:43;;;;;;;11.60;1.82;;;;;;;30.95;31.75;99244.63;2078962;85;33127;-63
2022/05/24 13:56:49;;;;;;;3.62;2.75;;;;;;;30.90;31.67;99249.48;2079649;85;29437;-66
2022/05/24 14:00:03;;;;;;;4.12;2.22;;;;;;;30.93;31.84;99250.95;2080053;85;27733;-65
2022/05/24 14:03:49;;;;;;;8.33;1.50;;;;;;;30.90;31.99;99252.25;2079705;85;33618;-68
2022/05/24 14:07:00;;;;;;;5.37;2.95;;;;;;;30.84;32.04;99255.13;2078279;85;31000;-65
2022/05/24 14:10:03;;;;;;;7.03;2.42;;;;;;;30.79;32.25;99264.13;2078277;85;33800;-67
2022/05/24 14:13:07;;;;;;;4.75;2.35;;;;;;;30.77;32.43;99264.91;2051519;86;29568;-65
2022/05/24 14:16:11;;;;;;;3.37;2.10;;;;;;;30.78;32.47;99278.20;2053347;86;27667;-66
2022/05/24 14:19:14;;;;;;;5.00;2.33;;;;;;;30.83;32.30;99283.33;2053412;86;29671;-66
2022/05/24 14:22:17;;;;;;;2.10;1.70;;;;;;;30.82;32.34;99278.88;2052839;86;32236;-68
2022/05/24 14:25:20;;;;;;;4.50;2.10;;;;;;;30.82;32.37;99280.78;2051823;86;32970;-63
2022/05/24 14:28:22;;;;;;;7.50;2.22;;;;;;;30.84;32.55;99275.86;2051159;86;30166;-68
2022/05/24 14:31:24;;;;;;;8.23;1.95;;;;;;;30.76;32.50;99280.66;2051696;86;27696;-64
2022/05/24 14:34:28;;;;;;;2.95;2.15;;;;;;;30.70;32.66;99284.35;2052784;86;28801;-64
2022/05/24 14:37:30;;;;;;;3.40;2.30;;;;;;;30.64;32.77;99278.92;2053624;86;31030;-66
2022/05/24 14:40:38;;;;;;;6.00;2.12;;;;;;;30.55;32.86;99281.98;2053036;86;34114;-63
2022/05/24 14:43:36;;;;;;;;;;;;;;;30.47;32.87;99283.67;2055497;86;30114;-64
2022/05/24 14:46:40;;;;;;;5.37;2.35;;;;;;;30.33;32.90;99293.22;2053816;86;27615;-64
2022/05/24 14:49:41;;;;;;;;;;;;;;;30.14;33.09;99298.73;2055564;86;29598;-66
2022/05/24 14:52:45;;;;;;;5.92;1.65;;;;;;;29.96;33.20;99297.66;2053294;86;31476;-68
2022/05/24 14:55:47;;;;;;;5.63;1.70;;;;;;;29.75;33.29;99297.52;2051937;86;32997;-67
2022/05/24 14:58:49;;;;;;;6.20;2.12;;;;;;;29.60;33.50;99303.93;2051295;86;29399;-65
2022/05/24 15:01:53;;;;;;;13.15;2.37;;;;;;;29.40;33.59;99307.70;2051549;85;27610;-65
2022/05/24 15:04:55;;;;;;;10.32;2.15;;;;;;;29.28;33.91;99312.23;2052932;86;29907;-63
2022/05/24 15:15:24;;;;;;;15.65;2.45;;;;;;;28.68;34.55;99334.92;2078031;85;30576;-68
2022/05/24 15:18:35;;;;;;;10.85;2.83;;;;;;;28.41;35.03;99335.01;2076905;85;27644;-64
2022/05/24 15:21:54;;;;;;;9.80;2.35;;;;;;;28.02;35.42;99372.05;2078294;85;28730;-67
2022/05/24 15:25:03;;;;;;;7.95;2.30;;;;;;;27.51;36.38;99407.94;2079669;85;32271;-63
2022/05/24 15:28:10;;;;;;;9.38;2.50;;;;;;;27.02;37.88;99421.42;2080511;85;33775;-63
2022/05/24 15:31:15;;;;;;;5.95;2.30;;;;;;;26.48;38.21;99435.69;2080222;85;29366;-63